| time (UTC) | temp F | wind direction | speed knots | gust knots | rain 1hr in | rain 24hr in | rain mn in | humidity % | barometer mb |
| 20260510233033 | 74 | 260 | 0.0 | 0.9 | 0.00 | 0.00 | 0.00 | 45 | 1014.9 |
| 20260510231529 | 76 | 260 | 0.0 | 0.9 | 0.00 | 0.00 | 0.00 | 42 | 1014.7 |
| 20260510230024 | 76 | 256 | 0.0 | 2.6 | 0.00 | 0.00 | 0.00 | 39 | 1014.6 |
| 20260510224527 | 76 | 224 | 0.0 | 0.0 | 0.00 | 0.00 | 0.00 | 37 | 1014.5 |
| 20260510223026 | 77 | 224 | 0.0 | 0.0 | 0.00 | 0.00 | 0.00 | 36 | 1014.6 |
| 20260510221530 | 78 | 224 | 0.0 | 2.6 | 0.00 | 0.00 | 0.00 | 38 | 1014.5 |
| 20260510220028 | 79 | 64 | 0.0 | 1.7 | 0.00 | 0.00 | 0.00 | 32 | 1014.5 |
| 20260510214526 | 79 | 152 | 0.0 | 0.9 | 0.00 | 0.00 | 0.00 | 32 | 1014.5 |
| 20260510213027 | 80 | 236 | 0.0 | 0.9 | 0.00 | 0.00 | 0.00 | 32 | 1014.4 |
| 20260510211529 | 81 | 259 | 0.0 | 0.9 | 0.00 | 0.00 | 0.00 | 27 | 1014.4 |
| 20260510210018 | 81 | 272 | 0.9 | 2.6 | 0.00 | 0.00 | 0.00 | 30 | 1014.6 |
| 20260510204525 | 81 | 271 | 0.9 | 3.5 | 0.00 | 0.00 | 0.00 | 29 | 1014.5 |
| 20260510203026 | 80 | 268 | 0.9 | 3.5 | 0.00 | 0.00 | 0.00 | 30 | 1014.7 |
| 20260510201512 | 80 | 236 | 1.7 | 4.3 | 0.00 | 0.00 | 0.00 | 30 | 1014.7 |
| 20260510200014 | 80 | 266 | 0.0 | 2.6 | 0.00 | 0.00 | 0.00 | 32 | 1015.0 |
| 20260510194523 | 80 | 274 | 0.9 | 3.5 | 0.00 | 0.00 | 0.00 | 28 | 1015.0 |
| 20260510193022 | 80 | 214 | 1.7 | 5.2 | 0.00 | 0.00 | 0.00 | 27 | 1015.2 |
| 20260510191527 | 80 | 261 | 0.9 | 2.6 | 0.00 | 0.00 | 0.00 | 27 | 1015.3 |
| 20260510190014 | 81 | 74 | 0.0 | 3.5 | 0.00 | 0.00 | 0.00 | 25 | 1015.4 |
| 20260510184519 | 82 | 305 | 0.9 | 2.6 | 0.00 | 0.00 | 0.00 | 28 | 1015.4 |
| 20260510183020 | 81 | 320 | 0.0 | 1.7 | 0.00 | 0.00 | 0.00 | 29 | 1015.5 |
| 20260510181526 | 82 | 257 | 0.0 | 2.6 | 0.00 | 0.00 | 0.00 | 29 | 1015.6 |
| 20260510180028 | 81 | 214 | 0.0 | 2.6 | 0.00 | 0.00 | 0.00 | 28 | 1015.8 |
| 20260510174514 | 81 | 35 | 0.9 | 2.6 | 0.00 | 0.00 | 0.00 | 31 | 1015.9 |
| 20260510173019 | 81 | 51 | 0.9 | 3.5 | 0.00 | 0.00 | 0.00 | 28 | 1016.0 |
| 20260510171523 | 80 | 283 | 1.7 | 3.5 | 0.00 | 0.00 | 0.00 | 29 | 1016.3 |
| 20260510170026 | 81 | 244 | 0.0 | 5.2 | 0.00 | 0.00 | 0.00 | 32 | 1016.3 |
| 20260510164535 | 81 | 251 | 0.9 | 3.5 | 0.00 | 0.00 | 0.00 | 30 | 1016.3 |
| 20260510163016 | 80 | 48 | 0.0 | 4.3 | 0.00 | 0.00 | 0.00 | 32 | 1016.3 |
| 20260510161517 | 79 | 266 | 0.0 | 1.7 | 0.00 | 0.00 | 0.00 | 30 | 1016.6 |
| 20260510160023 | 80 | 34 | 0.9 | 2.6 | 0.00 | 0.00 | 0.00 | 33 | 1016.8 |
| 20260510154531 | 78 | 220 | 0.0 | 3.5 | 0.00 | 0.00 | 0.00 | 38 | 1016.7 |
| 20260510153029 | 79 | 257 | 0.0 | 2.6 | 0.00 | 0.00 | 0.00 | 34 | 1016.7 |
| 20260510151514 | 78 | 208 | 0.0 | 2.6 | 0.00 | 0.00 | 0.00 | 36 | 1016.8 |
| 20260510150022 | 77 | 127 | 0.0 | 1.7 | 0.00 | 0.00 | 0.00 | 38 | 1016.9 |
| 20260510144535 | 77 | 300 | 0.0 | 2.6 | 0.00 | 0.00 | 0.00 | 39 | 1016.8 |
| 20260510143028 | 76 | 231 | 0.9 | 1.7 | 0.00 | 0.00 | 0.00 | 37 | 1016.8 |
| 20260510141527 | 73 | 267 | 0.0 | 0.9 | 0.00 | 0.00 | 0.00 | 44 | 1016.8 |
| 20260510140020 | 72 | 30 | 0.0 | 2.6 | 0.00 | 0.00 | 0.00 | 48 | 1016.8 |
| 20260510134524 | 71 | 274 | 0.0 | 0.9 | 0.00 | 0.00 | 0.00 | 48 | 1016.9 |
| 20260510133025 | 69 | 273 | 0.0 | 0.9 | 0.00 | 0.00 | 0.00 | 59 | 1016.7 |
| 20260510131529 | 67 | 255 | 0.0 | 0.9 | 0.00 | 0.00 | 0.00 | 68 | 1016.8 |
| 20260510130028 | 65 | 255 | 0.0 | 0.0 | 0.00 | 0.00 | 0.00 | 76 | 1016.5 |
| 20260510124518 | 62 | 192 | 0.0 | 2.6 | 0.00 | 0.00 | 0.00 | 84 | 1016.5 |
| 20260510123022 | 58 | 72 | 0.0 | 0.0 | 0.00 | 0.00 | 0.00 | 88 | 1016.4 |
| 20260510121529 | 56 | 72 | 0.0 | 0.0 | 0.00 | 0.00 | 0.00 | 91 | 1016.2 |
| 20260510120010 | 54 | 72 | 0.0 | 0.0 | 0.00 | 0.00 | 0.00 | 91 | 1015.9 |
| 20260510114516 | 53 | 72 | 0.0 | 0.0 | 0.00 | 0.00 | 0.00 | 92 | 1015.9 |
| 20260510113024 | 51 | 72 | 0.0 | 0.9 | 0.00 | 0.00 | 0.00 | 91 | 1015.3 |
| 20260510111526 | 51 | 49 | 0.0 | 0.9 | 0.00 | 0.00 | 0.00 | 92 | 1015.2 |
| 20260510110031 | 51 | 302 | 0.0 | 0.0 | 0.00 | 0.00 | 0.00 | 92 | 1015.1 |
| 20260510104514 | 51 | 11 | 0.0 | 0.9 | 0.00 | 0.00 | 0.00 | 92 | 1014.9 |
| 20260510103018 | 50 | 11 | 0.0 | 0.0 | 0.00 | 0.00 | 0.00 | 92 | 1014.5 |
| 20260510101523 | 50 | 20 | 0.0 | 0.0 | 0.00 | 0.00 | 0.00 | 91 | 1014.2 |
| 20260510100026 | 51 | 20 | 0.0 | 0.0 | 0.00 | 0.00 | 0.00 | 91 | 1014.0 |
| 20260510094534 | 52 | 20 | 0.0 | 0.9 | 0.00 | 0.00 | 0.00 | 92 | 1013.9 |
| 20260510093016 | 51 | 20 | 0.0 | 0.9 | 0.00 | 0.00 | 0.00 | 92 | 1013.9 |
| 20260510091523 | 51 | 245 | 0.0 | 0.9 | 0.00 | 0.00 | 0.00 | 91 | 1013.7 |
| 20260510090024 | 52 | 245 | 0.0 | 0.9 | 0.00 | 0.00 | 0.00 | 91 | 1013.5 |
| 20260510084510 | 53 | 245 | 0.0 | 0.9 | 0.00 | 0.00 | 0.00 | 90 | 1013.5 |
| 20260510083013 | 53 | 13 | 0.0 | 1.7 | 0.00 | 0.00 | 0.00 | 92 | 1013.3 |
| 20260510081516 | 53 | 219 | 0.0 | 0.0 | 0.00 | 0.00 | 0.00 | 91 | 1013.2 |
| 20260510080023 | 54 | 4 | 0.0 | 0.0 | 0.00 | 0.00 | 0.00 | 91 | 1013.0 |
| 20260510074532 | 54 | 4 | 0.0 | 0.0 | 0.00 | 0.00 | 0.00 | 91 | 1012.8 |
| 20260510073027 | 54 | 4 | 0.0 | 0.0 | 0.00 | 0.00 | 0.00 | 91 | 1012.8 |
| 20260510071514 | 54 | 4 | 0.0 | 0.0 | 0.00 | 0.00 | 0.00 | 91 | 1012.7 |
| 20260510070019 | 55 | 4 | 0.0 | 0.0 | 0.00 | 0.00 | 0.00 | 91 | 1012.6 |
| 20260510064526 | 55 | 4 | 0.0 | 0.0 | 0.00 | 0.00 | 0.00 | 90 | 1012.7 |
| 20260510063023 | 56 | 4 | 0.0 | 0.0 | 0.00 | 0.00 | 0.00 | 90 | 1012.6 |
| 20260510061531 | 56 | 4 | 0.0 | 0.9 | 0.00 | 0.00 | 0.00 | 91 | 1012.7 |
| 20260510060036 | 56 | 4 | 0.0 | 0.0 | 0.00 | 0.00 | 0.00 | 90 | 1013.0 |
| 20260510054521 | 56 | 4 | 0.0 | 0.0 | 0.00 | 0.00 | 0.00 | 90 | 1013.1 |
| 20260510053023 | 57 | 4 | 0.0 | 0.0 | 0.00 | 0.00 | 0.00 | 89 | 1013.0 |
| 20260510051526 | 58 | 4 | 0.0 | 0.9 | 0.00 | 0.00 | 0.00 | 91 | 1013.0 |
| 20260510050030 | 57 | 245 | 0.0 | 0.0 | 0.00 | 0.00 | 0.00 | 91 | 1013.2 |
| 20260510044518 | 58 | 245 | 0.0 | 0.9 | 0.00 | 0.00 | 0.00 | 89 | 1013.2 |
| 20260510043022 | 58 | 201 | 0.0 | 0.0 | 0.00 | 0.00 | 0.00 | 89 | 1013.0 |
| 20260510041530 | 58 | 201 | 0.0 | 0.0 | 0.00 | 0.00 | 0.00 | 89 | 1013.1 |
| 20260510040026 | 59 | 201 | 0.0 | 0.0 | 0.00 | 0.00 | 0.00 | 88 | 1013.2 |
| 20260510034528 | 59 | 201 | 0.0 | 0.0 | 0.00 | 0.00 | 0.00 | 88 | 1013.1 |
| 20260510033019 | 60 | 201 | 0.0 | 0.0 | 0.00 | 0.00 | 0.00 | 87 | 1013.1 |
| 20260510031528 | 61 | 201 | 0.0 | 0.0 | 0.00 | 0.00 | 0.00 | 86 | 1013.1 |
| 20260510030027 | 61 | 201 | 0.0 | 0.0 | 0.00 | 0.00 | 0.00 | 87 | 1013.1 |
| 20260510024532 | 61 | 200 | 0.0 | 0.9 | 0.00 | 0.00 | 0.00 | 86 | 1013.1 |
| 20260510023042 | 62 | 286 | 0.0 | 0.0 | 0.00 | 0.00 | 0.00 | 84 | 1012.9 |
| 20260510021518 | 63 | 341 | 0.0 | 0.0 | 0.00 | 0.00 | 0.00 | 83 | 1012.8 |
| 20260510020024 | 64 | 239 | 0.0 | 0.0 | 0.00 | 0.00 | 0.00 | 82 | 1012.7 |
| 20260510014527 | 64 | 239 | 0.0 | 0.0 | 0.00 | 0.00 | 0.00 | 81 | 1012.3 |
| 20260510013029 | 65 | 239 | 0.0 | 0.9 | 0.00 | 0.00 | 0.00 | 80 | 1012.2 |
| 20260510011531 | 66 | 239 | 0.0 | 2.6 | 0.00 | 0.00 | 0.00 | 78 | 1011.9 |
| 20260510010026 | 67 | 252 | 0.0 | 0.9 | 0.00 | 0.00 | 0.00 | 77 | 1011.7 |
| 20260510004526 | 67 | 252 | 0.0 | 0.0 | 0.00 | 0.00 | 0.00 | 76 | 1011.3 |
| 20260510003028 | 68 | 250 | 0.0 | 1.7 | 0.00 | 0.00 | 0.00 | 74 | 1011.0 |
| 20260510001530 | 68 | 245 | 0.0 | 2.6 | 0.00 | 0.00 | 0.00 | 73 | 1010.8 |
| 20260510000028 | 69 | 212 | 0.0 | 1.7 | 0.00 | 0.00 | 0.00 | 73 | 1010.7 |
| 20260509234520 | 69 | 248 | 0.0 | 1.7 | 0.00 | 0.00 | 0.00 | 72 | 1010.5 |